Tiempo atmosférico en la estación meteorológica de Gijón, Campus, Asturias (26 m.)



Fecha
DESCASC
Temp. máxima en grados centígrados (hora)
DESCASC
Temp. mínima en grados centígrados (hora)
DESCASC
Temp. media en grados centígrados
DESCASC
Racha de viento máxima en m/sg (hora)
DESCASC
Velocidad máxima media en intervalos de 10 minutos(hora)
DESCASC
Precipitaciones diarias en mm
DESCASC
Precipitaciones de 00:00 a 06:00 en mm
DESCASC
Precipitaciones de 06:00 a 12:00 en mm
DESCASC
Precipitaciones de 12:00 a 18:00 en mm
DESCASC
Precipitaciones de 18:00 a 24:00 en mm
DESCASC
13-06-2019 16.6 (18:00) 8 (07:00) 12.3 5.83 (11:20) 3.33 (11:20) 0 0 0 0 0
12-06-2019 17.7 (15:10) 10.9 (04:40) 14.3 8.89 (04:30) 6.11 (15:50) 0.8 0.8 0 0 0
11-06-2019 17 (15:50) 10.6 (07:10) 13.8 11.11 (15:10) 6.67 (12:20) 2 1 0.4 0 0.6
10-06-2019 18.2 (12:40) 6.8 (05:20) 12.5 8.33 (15:30) 5.56 (15:00) 0 0 0 0 0
09-06-2019 15.4 (12:00) 12.4 (00:00) 13.9 5.56 (03:30) 3.61 (13:50) 0.6 0.2 0.4 0 0
08-06-2019 18 (13:00) 6.5 (00:00) 12.3 9.17 (14:10) 4.17 (14:30) 0 0 0 0 0
07-06-2019 17.7 (12:50) 12 (00:00) 14.9 13.61 (01:10) 7.22 (01:20) 2.2 0 0 2.2 0
06-06-2019 20.8 (17:40) 6.2 (00:00) 13.5 11.11 (18:00) 5.83 (15:40) 0.6 0 0 0 0.6
05-06-2019 16.7 (18:50) 11.1 (00:00) 13.9 11.39 (11:40) 6.39 (11:40) 5.8 3.6 0.4 0.4 1.4
04-06-2019 20.7 (11:10) 12.7 (00:00) 16.7 15 (12:00) 6.94 (12:00) 7.4 0 0 1.6 5.8
03-06-2019 22.1 (13:00) 16.3 (00:00) 19.2 7.5 (13:30) 5.28 (13:30) 0 0 0 0 0
02-06-2019 21.2 (11:10) 12.4 (00:00) 16.8 6.11 (11:50) 4.44 (11:50) 0 0 0 0 0
01-06-2019 25.9 (13:10) 11.9 (00:00) 18.9 5.56 (15:40) 3.89 (15:40) 0 0 0 0 0
31-05-2019 30 (18:40) 10.3 (00:00) 20.2 6.39 (18:10) 3.89 (16:20) 0 0 0 0 0
30-05-2019 26.5 (17:50) 9.7 (00:00) 18.1 9.17 (18:00) 4.72 (17:10) 0 0 0 0 0
29-05-2019 21.5 (17:50) 12 (00:00) 16.8 7.22 (18:20) 4.17 (12:20) 0 0 0 0 0
28-05-2019 17.5 (16:50) 9 (00:00) 13.3 8.06 (13:50) 5.83 (15:40) 0 0 0 0 0
27-05-2019 15.9 (13:40) 11.6 (00:00) 13.8 6.94 (12:40) 4.17 (14:40) 3.8 0 2.4 1.4 0
26-05-2019 16.6 (10:50) 8.4 (00:00) 12.5 6.39 (15:00) 3.61 (12:20) 0 0 0 0 0
25-05-2019 18.7 (14:40) 12.3 (00:00) 15.5 6.39 (16:20) 3.89 (16:10) 0 0 0 0 0
24-05-2019 17.6 (14:00) 11.8 (00:00) 14.7 8.61 (13:10) 5.83 (13:00) 0 0 0 0 0
23-05-2019 19.6 (13:50) 11.2 (00:00) 15.4 9.44 (20:00) 5.56 (16:00) 0 0 0 0 0
22-05-2019 21.2 (17:10) 7.8 (00:00) 14.5 6.39 (14:00) 4.44 (14:00) 0 0 0 0 0
21-05-2019 18.6 (16:00) 6.6 (06:50) 12.6 9.17 (17:30) 4.44 (16:10) 0 0 0 0 0
20-05-2019 17.5 (19:00) 4.9 (07:00) 11.2 6.94 (19:30) 4.17 (14:10) 0 0 0 0 0
19-05-2019 16 (14:40) 9.3 (00:00) 12.7 8.06 (16:40) 5 (16:30) 0 0 0 0 0
18-05-2019 14.4 (19:10) 8.9 (00:00) 11.6 10.56 (19:50) 5.28 (19:50) 11.2 3 4 2.8 1.4
17-05-2019 15.1 (12:10) 9.8 (00:00) 12.5 13.06 (03:00) 6.94 (03:00) 12.6 5.8 0 5.6 1.2

Gráficas

Temp. máximas Temp. mínimas Temp. medias Precipitaciones Rachas de viento máximas Velocidades máximas media en intervalos de 10 minutos

Datos horarios

Fecha y hora oficial Temperatura (ºC) Velocidad del viento (km/h) Dirección del viento Racha (km/h) Dirección de racha Precipitación (mm) Presión (hPa) Tendencia (hPa) Humedad (%)
2019-06-15 23:00:00 16 3 Nordeste 6 Nordeste 0 1019.4 0.3 66
2019-06-15 22:00:00 16.4 3 Nordeste 12 Norte 0 1019.1 0 65
2019-06-15 21:00:00 17 4 Norte 15 Nordeste 0 1019 0.1 64
2019-06-15 20:00:00 18.7 9 Norte 17 Norte 0 1019.1 0.5 62
2019-06-15 19:00:00 18.8 9 Nordeste 19 Norte 0 1019.1 0.7 60
2019-06-15 18:00:00 18.3 9 Norte 20 Norte 0 1018.9 0.9 58
2019-06-15 17:00:00 18.5 10 Norte 20 Nordeste 0 1018.6 0.7 58
2019-06-15 16:00:00 19.8 13 Norte 26 Nordeste 0 1018.4 0.9 53
2019-06-15 15:00:00 18.9 17 Norte 26 Norte 0 1018 0.9 57
2019-06-15 14:00:00 18.3 18 Norte 26 Norte 0 1017.9 0.9 60
2019-06-15 13:00:00 18.5 14 Norte 25 Norte 0 1017.5 0.6 66
2019-06-15 12:00:00 18.5 14 Norte 21 Norte 0 1017.1 0.5 62
2019-06-15 11:00:00 18.3 6 Oeste 12 Oeste 0 1017 0.9 62
2019-06-15 10:00:00 17.2 5 Oeste 9 Oeste 0 1016.9 1.5 68
2019-06-15 09:00:00 13.5 4 Sudeste 6 Sudeste 0 1016.6 1.6 87
2019-06-15 08:00:00 11.3 4 Sudeste 6 Sudeste 0 1016.1 1.1 95
2019-06-15 07:00:00 9.9 3 Sudeste 8 Sudeste 0 1015.4 0.5 95
2019-06-15 06:00:00 9.6 4 Noroeste 7 Sudeste 0 1015 0 94
2019-06-15 05:00:00 11.2 3 Sur 6 Sudeste 0 1015 -0.2 90
2019-06-15 04:00:00 13.1 0 Calma 11 Sur 0 1014.9 -0.4 82
2019-06-15 03:00:00 14.1 5 Sur 15 Sur 0 1015 0.2 78
2019-06-15 02:00:00 14.3 5 Sur 12 Sur 0 1015.2 0.7 81
2019-06-15 01:00:00 14.2 2 Sudoeste 6 Sur 0 1015.3 1.8 85
2019-06-15 00:00:00 14.2 3 Sur 6 Sur 0 1014.8 1.7 85
2019-06-14 23:00:00 14.6 0 Calma 4 Sudeste 0 1014.5 2.1 83
2019-06-14 22:00:00 15.1 3 Sudeste 7 Nordeste 0 1013.5 1.7 79
2019-06-14 21:00:00 15.6 4 Nordeste 8 Norte 0 1013.1 1.6 76
2019-06-14 20:00:00 16.2 3 Norte 10 Nordeste 0 1012.4 1.1 73
2019-06-14 19:00:00 16.6 10 Norte 19 Norte 0 1011.8 0.3 73
2019-06-14 18:00:00 18.1 9 Nordeste 18 Nordeste 0 1011.5 0.2 63
2019-06-14 17:00:00 18 11 Norte 20 Nordeste 0 1011.3 0.1 61
2019-06-14 16:00:00 17.9 9 Nordeste 21 Norte 0 1011.5 0.4 68
2019-06-14 15:00:00 17.5 10 Norte 18 Norte 0 1011.3 0.3 69
2019-06-14 14:00:00 16.5 12 Norte 19 Norte 0 1011.2 0.1 73
2019-06-14 13:00:00 16.9 9 Nordeste 19 Norte 0 1011.1 0.3 73
2019-06-14 12:00:00 15.8 8 Norte 15 Norte 0 1011 0.5 77
2019-06-14 11:00:00 15.4 5 Norte 12 Norte 0 1011.1 1 76
2019-06-14 10:00:00 14.6 6 Noroeste 11 Noroeste 0 1010.8 0.6 79
2019-06-14 09:00:00 13.1 2 Oeste 5 Oeste 0 1010.5 0.7 86
2019-06-14 08:00:00 9.4 3 Este 5 Sudeste 0 1010.1 0.2 98
2019-06-14 07:00:00 7.9 3 Sudeste 6 Sudeste 0 1010.2 0.1 97
2019-06-14 06:00:00 8.7 4 Sudeste 6 Sudeste 0 1009.8 -0.6 96
2019-06-14 05:00:00 10 5 Sudeste 6 Este 0 1009.9 -0.9 95
2019-06-14 04:00:00 11.4 4 Sudeste 5 Sudeste 0 1010.1 -1.1 94
2019-06-14 03:00:00 11.9 3 Este 5 Este 0 1010.4 -0.8 93
2019-06-14 02:00:00 12 0 Calma 4 Sudeste 0 1010.8 -0.4 93
2019-06-14 01:00:00 12.5 3 Sudeste 4 Este 0 1011.2 0.3 91
2019-06-14 00:00:00 13.3 2 Sudeste 5 Sudeste 0 1011.2 0.4 87
2019-06-13 23:00:00 13.9 3 Sudeste 8 Este 0 1011.2 0.8 83
2019-06-13 22:00:00 14.2 3 Este 10 Este 0 1010.9 0.9 78
2019-06-13 21:00:00 14.7 3 Nordeste 10 Norte 0 1010.8 1.1 75
2019-06-13 20:00:00 15.1 5 Nordeste 14 Norte 0 1010.4 0.7 74
2019-06-13 19:00:00 16 6 Nordeste 14 Norte 0 1010 0.3 71
2019-06-13 18:00:00 16.6 4 Este 12 Norte 0 1009.7 0.1 70
2019-06-13 17:00:00 15.5 5 Nordeste 16 Nordeste 0 1009.7 0.2 71
2019-06-13 16:00:00 15.5 6 Nordeste 17 Este 0 1009.7 0.5 72
2019-06-13 15:00:00 16.2 5 Nordeste 17 Nordeste 0 1009.6 0.4 71
2019-06-13 14:00:00 15.6 8 Nordeste 15 Nordeste 0 1009.5 0.4 76
2019-06-13 13:00:00 16.1 7 Nordeste 18 Nordeste 0 1009.2 0 72
2019-06-13 12:00:00 16 11 Nordeste 21 Norte 0 1009.2 -0.2 74
2019-06-13 11:00:00 15.3 11 Norte 18 Norte 0 1009.1 0 77
2019-06-13 10:00:00 15.2 4 Nordeste 6 Norte 0 1009.2 -0.1 72
2019-06-13 09:00:00 12.4 2 Sudoeste 5 Oeste 0 1009.4 0.2 84
2019-06-13 08:00:00 9.1 0 Calma 5 Sudeste 0 1009.1 -0.2 97
2019-06-13 07:00:00 8 5 Sudeste 6 Sudeste 0 1009.3 -0.1 97
2019-06-13 06:00:00 8.4 4 Sudeste 7 Sudeste 0 1009.2 -0.7 96
2019-06-13 05:00:00 9.5 4 Sudeste 6 Sudeste 0 1009.3 -1.1 94
2019-06-13 04:00:00 11.2 3 Sudeste 4 Sudeste 0 1009.4 -1.6 92
2019-06-13 03:00:00 12.1 3 Sudeste 5 Sudeste 0 1009.9 -1.6 91
2019-06-13 02:00:00 12.4 3 Sudeste 4 Sudeste 0 1010.4 -1.3 90
2019-06-13 01:00:00 12.8 2 Sur 5 Sudeste 0 1011 -0.6 85
2019-06-13 00:00:00 13.3 3 Sudeste 6 Sudeste 0 1011.5 0 83
2019-06-12 23:00:00 13.8 4 Norte 10 Norte 0 1011.7 0.2 77
2019-06-12 22:00:00 14.2 8 Norte 14 Norte 0 1011.6 0.1 75
2019-06-12 21:00:00 14.5 8 Noroeste 19 Noroeste 0 1011.5 -0.1 76
2019-06-12 20:00:00 14.8 11 Noroeste 20 Norte 0 1011.5 -0.3 75
2019-06-12 19:00:00 15.3 13 Noroeste 21 Noroeste 0 1011.5 -0.3 72
2019-06-12 18:00:00 15.7 12 Noroeste 24 Noroeste 0 1011.6 -0.4 73
2019-06-12 17:00:00 16.2 16 Norte 30 Norte 0 1011.8 -0.6 72
2019-06-12 16:00:00 16.1 19 Norte 32 Norte 0 1011.8 -1 77
2019-06-12 15:00:00 17.5 17 Noroeste 27 Noroeste 0 1012 -0.7 65
2019-06-12 14:00:00 16.6 10 Oeste 21 Oeste 0 1012.4 -0.4 55
2019-06-12 13:00:00 14.8 9 Oeste 23 Oeste 0 1012.8 0.2 64
2019-06-12 12:00:00 14.7 12 Sudoeste 24 Oeste 0 1012.7 0.1 61
2019-06-12 11:00:00 13.4 9 Sudoeste 26 Sudoeste 0 1012.8 0.5 70
2019-06-12 10:00:00 13.1 7 Sudoeste 21 Sudoeste 0 1012.6 0.4 70
2019-06-12 09:00:00 12.2 8 Sudoeste 17 Sudoeste 0 1012.6 0.3 73
2019-06-12 08:00:00 11.9 9 Sudoeste 22 Sudoeste 0 1012.3 -0.4 74
2019-06-12 07:00:00 11.3 10 Sudoeste 21 Sudoeste 0 1012.2 -1 75
2019-06-12 06:00:00 11 10 Sudoeste 20 Sudoeste 0 1012.3 -1.3 78
2019-06-12 05:00:00 11 5 Sudoeste 32 Sur 0.4 1012.7 -1.5 80
2019-06-12 04:00:00 11.6 8 Sudoeste 22 Sudoeste 0 1013.2 -1.4 77
2019-06-12 03:00:00 11.6 11 Sudoeste 20 Sur 0.2 1013.6 -1.4 80
2019-06-12 02:00:00 11.8 7 Sudoeste 19 Sudoeste 0.2 1014.2 -1 81
2019-06-12 01:00:00 12.2 10 Sudoeste 25 Sudoeste 0 1014.6 -0.5 79
2019-06-12 00:00:00 12.3 7 Sudoeste 18 Sudoeste 0 1015 -0.6 80
2019-06-11 23:00:00 13 6 Sudoeste 22 Oeste 0 1015.2 -0.4 78
2019-06-11 22:00:00 14.3 12 Oeste 31 Oeste 0 1015.1 -0.6 71
2019-06-11 21:00:00 14.9 13 Oeste 31 Oeste 0 1015.6 -0.1 71
2019-06-11 20:00:00 15.2 13 Oeste 35 Noroeste 0 1015.6 -0.1 71
2019-06-11 19:00:00 14.4 19 Noroeste 35 Noroeste 0.6 1015.7 -0.2 79
2019-06-11 18:00:00 16.6 14 Oeste 34 Oeste 0 1015.7 -0.4 64
2019-06-11 17:00:00 16.6 17 Noroeste 33 Noroeste 0 1015.7 -0.5 61
2019-06-11 16:00:00 16.9 19 Noroeste 40 Noroeste 0 1015.9 -0.3 62
2019-06-11 15:00:00 15.8 20 Noroeste 35 Noroeste 0 1016.1 0.2 64
2019-06-11 14:00:00 16.1 22 Noroeste 38 Noroeste 0 1016.2 0.6 68
2019-06-11 13:00:00 16.1 22 Noroeste 36 Noroeste 0 1016.2 0.5 65
2019-06-11 12:00:00 15.8 19 Noroeste 30 Noroeste 0 1015.9 0.7 67
2019-06-11 11:00:00 14.6 12 Noroeste 23 Noroeste 0 1015.6 0.8 74
2019-06-11 10:00:00 12.3 20 Noroeste 38 Noroeste 0.4 1015.7 1.3 75
2019-06-11 09:00:00 12.3 5 Sudoeste 17 Sudoeste 0 1015.2 0.9 84
2019-06-11 08:00:00 11.1 4 Sudoeste 11 Sudoeste 0 1014.8 0.3 92
2019-06-11 07:00:00 10.7 5 Sudoeste 19 Noroeste 0 1014.4 -0.4 91
2019-06-11 06:00:00 11.3 8 Sudoeste 24 Sudoeste 0 1014.3 -0.5 92
2019-06-11 05:00:00 11.3 5 Sur 10 Sur 0.2 1014.5 -0.7 94
2019-06-11 04:00:00 11.7 6 Noroeste 23 Noroeste 0 1014.8 -0.7 92
2019-06-11 03:00:00 12.5 11 Noroeste 19 Noroeste 0.8 1014.8 -0.8 89
2019-06-11 02:00:00 13.1 8 Oeste 24 Noroeste 0 1015.2 -0.6 81
2019-06-11 01:00:00 13.1 13 Noroeste 23 Noroeste 0 1015.5 0 86
2019-06-11 00:00:00 13 7 Sudoeste 15 Sudoeste 0 1015.6 -0.1 81
2019-06-10 23:00:00 13.9 6 Sudoeste 14 Sudoeste 0 1015.8 -0.1 81
2019-06-10 22:00:00 13.9 5 Oeste 19 Noroeste 0 1015.5 -0.5 81
2019-06-10 21:00:00 14.5 12 Noroeste 20 Noroeste 0 1015.7 -0.5 74
2019-06-10 20:00:00 14.7 12 Noroeste 23 Noroeste 0 1015.9 -0.4 79
2019-06-10 19:00:00 14.9 10 Noroeste 26 Noroeste 0 1016 -0.7 78
2019-06-10 18:00:00 15.5 16 Norte 27 Norte 0 1016.2 -0.7 73
2019-06-10 17:00:00 15.9 15 Norte 22 Noroeste 0 1016.3 -1.1 69
2019-06-10 16:00:00 16.3 14 Norte 30 Norte 0 1016.7 -0.6 69
2019-06-10 15:00:00 15.8 20 Norte 28 Norte 0 1016.9 -0.8 73
2019-06-10 14:00:00 16.4 16 Noroeste 28 Norte 0 1017.4 -0.5 69
2019-06-10 13:00:00 17.9 12 Noroeste 19 Noroeste 0 1017.3 -0.9 60
2019-06-10 12:00:00 16.9 6 Sudoeste 14 Oeste 0 1017.7 -0.4 57
2019-06-10 11:00:00 15.1 5 Oeste 10 Oeste 0 1017.9 -0.4 70
2019-06-10 10:00:00 13.4 5 Noroeste 8 Noroeste 0 1018.2 -0.2 85
2019-06-10 09:00:00 10.6 0 Calma 3 Este 0 1018.1 0.2 97
2019-06-10 08:00:00 8.9 0 Calma 4 Sudeste 0 1018.3 0.1 99
2019-06-10 07:00:00 8 2 Este 5 Sudeste 0 1018.4 0.3 99
2019-06-10 06:00:00 7.1 4 Sudeste 6 Sudeste 0 1017.9 -0.6 98
2019-06-10 05:00:00 7.1 3 Este 5 Sudeste 0 1018.2 -1.1 97
2019-06-10 04:00:00 8 4 Sudeste 7 Sudeste 0 1018.1 -1.6 95
2019-06-10 03:00:00 9.3 4 Sudeste 8 Este 0 1018.5 -1.1 94
2019-06-10 02:00:00 10.3 6 Sudeste 8 Este 0 1019.3 -0.5 94
2019-06-10 01:00:00 11.8 2 Este 4 Sudeste 0 1019.7 0.4 91
2019-06-10 00:00:00 12.4 2 Sudeste 4 Sudeste 0 1019.6 0.5 89
2019-06-09 23:00:00 12.8 3 Sudeste 5 Sudeste 0 1019.8 0.9 88
2019-06-09 22:00:00 13.4 2 Sudeste 4 Norte 0 1019.3 0.6 81
2019-06-09 21:00:00 13.7 2 Sudeste 14 Este 0 1019.1 0.8 78
2019-06-09 20:00:00 14.1 4 Este 11 Este 0 1018.9 0.9 79
2019-06-09 19:00:00 14.2 5 Este 14 Este 0 1018.7 0.8 77
2019-06-09 18:00:00 14.9 7 Nordeste 16 Norte 0 1018.3 0.6 78
2019-06-09 17:00:00 14.7 4 Este 13 Nordeste 0 1018 0.2 79
2019-06-09 16:00:00 14.9 7 Este 14 Este 0 1017.9 0.5 83
2019-06-09 15:00:00 14.3 5 Nordeste 14 Nordeste 0 1017.7 0.7 79
2019-06-09 14:00:00 13.7 11 Norte 19 Noroeste 0 1017.8 1 88
2019-06-09 13:00:00 14.9 5 Este 17 Este 0 1017.4 0.9 77
2019-06-09 12:00:00 15.4 9 Este 16 Este 0 1017 0.5 81
2019-06-09 11:00:00 14.4 7 Este 15 Este 0 1016.8 0.4 87
2019-06-09 10:00:00 13.6 3 Este 14 Este 0 1016.5 0.3 88
2019-06-09 09:00:00 13.3 4 Este 10 Nordeste 0 1016.5 0.3 93
2019-06-09 08:00:00 12.7 3 Nordeste 14 Este 0 1016.4 0.1 95
2019-06-09 07:00:00 12.8 7 Este 17 Este 0.4 1016.2 -0.5 95
2019-06-09 06:00:00 12.9 3 Sudeste 9 Sudeste 0.2 1016.2 -0.9 95
2019-06-09 05:00:00 13.1 4 Este 10 Nordeste 0 1016.3 -1.5 95
2019-06-09 04:00:00 13.3 5 Este 20 Este 0 1016.7 -1.7 91
2019-06-09 03:00:00 13.7 6 Este 13 Este 0 1017.1 -1.6 84
2019-06-09 02:00:00 13.6 0 Calma 5 Sudeste 0 1017.8 -1.1 83
2019-06-09 01:00:00 13.7 3 Sudeste 10 Este 0 1018.4 -0.2 82
2019-06-09 00:00:00 13.9 5 Este 12 Sudeste 0 1018.7 -0.1 81
2019-06-08 23:00:00 14.3 4 Este 12 Este 0 1018.9 -0.1 80
2019-06-08 22:00:00 14.4 7 Este 16 Este 0 1018.6 -0.7 78
2019-06-08 21:00:00 14.8 4 Nordeste 20 Este 0 1018.8 -0.6 77
2019-06-08 20:00:00 14.9 8 Este 20 Norte 0 1019 -0.3 76
2019-06-08 19:00:00 15.2 9 Nordeste 22 Nordeste 0 1019.3 -0.1 73
2019-06-08 18:00:00 15.7 9 Nordeste 27 Nordeste 0 1019.4 -0.2 73
2019-06-08 17:00:00 16.5 9 Nordeste 28 Norte 0 1019.3 -0.5 73
2019-06-08 16:00:00 16.9 13 Nordeste 30 Nordeste 0 1019.4 -0.7 70
2019-06-08 15:00:00 17.4 13 Nordeste 33 Nordeste 0 1019.6 -0.8 69
2019-06-08 14:00:00 17.6 13 Nordeste 30 Nordeste 0 1019.8 -0.9 66
2019-06-08 13:00:00 17.8 10 Nordeste 23 Norte 0 1020.1 -1 63
2019-06-08 12:00:00 17.7 12 Nordeste 23 Norte 0 1020.4 -0.8 62
2019-06-08 11:00:00 16.5 7 Nordeste 15 Norte 0 1020.7 -0.5 73
2019-06-08 10:00:00 13.3 2 Noroeste 5 Norte 0 1021.1 0.1 84
2019-06-08 09:00:00 10.8 0 Calma 5 Sudeste 0 1021.2 0.3 97
2019-06-08 08:00:00 7.6 2 Sudeste 7 Sudeste 0 1021.2 0.5 99
2019-06-08 07:00:00 6.5 3 Sudeste 6 Sudeste 0 1021 0.5 98
2019-06-08 06:00:00 6.7 2 Sudeste 6 Sudeste 0 1020.9 0.2 98
2019-06-08 05:00:00 7.2 3 Sudeste 5 Sudeste 0 1020.7 0 97
2019-06-08 04:00:00 7.7 3 Sudeste 6 Sudeste 0 1020.5 -0.2 97
2019-06-08 03:00:00 8.3 4 Sudeste 5 Sudeste 0 1020.7 0.2 96
2019-06-08 02:00:00 9.1 4 Sudeste 6 Sudeste 0 1020.7 0.6 94
2019-06-08 01:00:00 10.4 2 Nordeste 5 Sur 0 1020.7 1.4 90
2019-06-08 00:00:00 12 2 Sur 8 Sur 0 1020.5 1.7 83
2019-06-07 23:00:00 12.4 3 Sur 9 Sur 0 1020.1 2 81
2019-06-07 22:00:00 13.3 5 Sur 17 Oeste 0 1019.3 1.6 77
2019-06-07 21:00:00 14.7 12 Oeste 23 Norte 0 1018.8 2.1 67
2019-06-07 20:00:00 16.1 13 Noroeste 23 Noroeste 0 1018.1 1.9 63
2019-06-07 19:00:00 15 15 Oeste 32 Noroeste 0 1017.7 1.8 70
2019-06-07 18:00:00 16.2 13 Oeste 34 Noroeste 0 1016.7 1.8 62
2019-06-07 17:00:00 16 16 Oeste 34 Oeste 0.2 1016.2 2.4 56
2019-06-07 16:00:00 13.6 18 Oeste 40 Oeste 0.4 1015.9 3.4 70
2019-06-07 15:00:00 15.2 8 Oeste 39 Noroeste 0.4 1014.9 3.3 75
2019-06-07 14:00:00 15.2 9 Oeste 36 Oeste 1.2 1013.8 3.3 73
2019-06-07 13:00:00 17.2 17 Sudoeste 39 Sur 0 1012.5 3.2 47
2019-06-07 12:00:00 15.8 14 Oeste 37 Oeste 0 1011.6 3.9 51
2019-06-07 11:00:00 16.1 20 Sudoeste 39 Sudoeste 0 1010.5 3.7 49
2019-06-07 10:00:00 15.8 17 Sudoeste 45 Oeste 0 1009.3 4 50
2019-06-07 09:00:00 14.4 17 Sudoeste 41 Oeste 0 1007.7 3.6 54
2019-06-07 08:00:00 13.2 14 Oeste 43 Oeste 0 1006.8 3.8 60
2019-06-07 07:00:00 12.9 15 Sudoeste 46 Oeste 0 1005.3 3.1 60
2019-06-07 06:00:00 13.1 17 Sudoeste 42 Sudoeste 0 1004.1 2.8 58
2019-06-07 05:00:00 13 13 Sudoeste 44 Sudoeste 0 1003 2.8 57
2019-06-07 04:00:00 13.3 18 Sudoeste 40 Oeste 0 1002.2 2.5 55
2019-06-07 03:00:00 13.9 18 Sudoeste 39 Sudoeste 0 1001.3 2.1 56
2019-06-07 02:00:00 14.3 15 Sudoeste 49 Oeste 0 1000.2 1.7 54
2019-06-07 01:00:00 14.6 21 Oeste 48 Sudoeste 0 999.7 2.1 56
2019-06-07 00:00:00 13.3 6 Sudoeste 18 Oeste 0 999.2 2.1 76
2019-06-06 23:00:00 13.9 4 Sudeste 14 Oeste 0 998.5 1.3 84
2019-06-06 22:00:00 15.1 6 Noroeste 17 Sur 0 997.6 1.4 79
2019-06-06 21:00:00 15.6 12 Sudeste 28 Sudoeste 0.6 997.1 0 75
2019-06-06 20:00:00 19.8 11 Oeste 32 Sur 0 997.2 -0.1 49
2019-06-06 19:00:00 20.4 8 Sur 29 Sur 0 996.2 -2.2 43
2019-06-06 18:00:00 20.4 17 Sur 40 Sur 0 997.1 -3 41
2019-06-06 17:00:00 20.3 6 Este 24 Este 0 997.3 -4.1 56
2019-06-06 16:00:00 19.1 11 Sudeste 35 Este 0 998.4 -4.5 55
2019-06-06 15:00:00 20.6 13 Este 36 Este 0 1000.1 -4.5 49
2019-06-06 14:00:00 19.6 18 Este 32 Este 0 1001.4 -4.6 55
2019-06-06 13:00:00 19.1 11 Este 30 Este 0 1002.9 -4.2 55
2019-06-06 12:00:00 18.3 14 Este 25 Este 0 1004.6 -3.1 52
2019-06-06 11:00:00 17.7 9 Este 23 Sudeste 0 1006 -3 56
2019-06-06 10:00:00 16.1 8 Este 18 Este 0 1007.1 -2.6 58
2019-06-06 09:00:00 11.5 0 Calma 6 Norte 0 1007.7 -2.6 93
2019-06-06 08:00:00 7.6 4 Noroeste 6 Sudeste 0 1009 -1.6 100
2019-06-06 07:00:00 6.2 3 Sudeste 8 Sudeste 0 1009.7 -1.3 99
2019-06-06 06:00:00 6.5 3 Sudeste 6 Sudeste 0 1010.3 -1.1 98
2019-06-06 05:00:00 7.2 4 Sudeste 6 Sudeste 0 1010.6 -1.3 97
2019-06-06 04:00:00 8.2 3 Sudeste 4 Este 0 1011 -1.4 97
2019-06-06 03:00:00 9.3 2 Sur 6 Sudeste 0 1011.4 -1.2 97
2019-06-06 02:00:00 9.5 3 Este 7 Sudeste 0 1011.9 -0.8 95
2019-06-06 01:00:00 10.8 4 Sudeste 7 Sur 0 1012.4 -0.1 91
2019-06-06 00:00:00 11.1 3 Este 6 Sudeste 0 1012.6 0.3 93
2019-06-05 23:00:00 11.5 3 Sur 9 Sudoeste 0 1012.7 0.7 89
2019-06-05 22:00:00 11.9 5 Sudoeste 12 Sudoeste 0 1012.5 0.9 88
2019-06-05 21:00:00 12.2 5 Sur 18 Oeste 1.4 1012.3 0.7 90
2019-06-05 20:00:00 14.5 9 Oeste 24 Noroeste 0 1012 0.3 65
2019-06-05 19:00:00 16.1 14 Norte 22 Norte 0 1011.6 -0.2 57
2019-06-05 18:00:00 16.2 11 Oeste 28 Oeste 0 1011.6 -0.5 60
2019-06-05 17:00:00 16.5 12 Oeste 23 Oeste 0 1011.7 -0.5 56
2019-06-05 16:00:00 15.8 13 Noroeste 28 Noroeste 0 1011.8 0.5 59
2019-06-05 15:00:00 13.7 7 Sur 16 Sur 0 1012.1 0.9 78
2019-06-05 14:00:00 13 8 Oeste 36 Oeste 0.4 1012.2 1.7 80
2019-06-05 13:00:00 14.9 10 Sur 19 Noroeste 0 1011.3 0.9 72
2019-06-05 12:00:00 13 13 Noroeste 41 Noroeste 0 1011.2 1.4 77
2019-06-05 11:00:00 14.6 9 Oeste 21 Noroeste 0 1010.5 1.2 72
2019-06-05 10:00:00 12.4 11 Oeste 23 Oeste 0.4 1010.4 1.6 87
2019-06-05 09:00:00 12.7 11 Oeste 26 Sudoeste 0 1009.8 1.1 79
2019-06-05 08:00:00 12.2 4 Sudoeste 10 Oeste 0 1009.3 0.4 91
2019-06-05 07:00:00 11.5 4 Sur 7 Sudoeste 0 1008.8 -0.3 95
2019-06-05 06:00:00 12.2 0 Calma 18 Noroeste 0.2 1008.7 -0.4 93
2019-06-05 05:00:00 12.1 4 Sur 8 Sudoeste 0 1008.9 -0.6 95
2019-06-05 04:00:00 12.1 3 Sudoeste 8 Sudoeste 0 1009.1 -0.7 95
2019-06-05 03:00:00 12.1 4 Sur 13 Sudoeste 0 1009.1 -0.8 95
2019-06-05 02:00:00 12.3 7 Sur 12 Sur 0.4 1009.5 -0.5 96
2019-06-05 01:00:00 12.4 5 Sur 10 Sudoeste 3 1009.8 0.3 96
2019-06-05 00:00:00 12.7 5 Sur 12 Sur 2.6 1009.9 0.5 95
2019-06-04 23:00:00 13.4 5 Sur 10 Sur 3 1010 0.9 93
2019-06-04 22:00:00 14.8 5 Noroeste 15 Noroeste 0 1009.5 0.6 80
2019-06-04 21:00:00 15.5 7 Noroeste 21 Noroeste 0 1009.4 0.5 74
2019-06-04 20:00:00 15.9 14 Noroeste 25 Noroeste 0 1009.1 0.3 71
2019-06-04 19:00:00 16 10 Noroeste 22 Noroeste 0.2 1008.9 0.6 75
2019-06-04 18:00:00 15.7 14 Noroeste 26 Noroeste 0.4 1008.9 0.8 75
2019-06-04 17:00:00 16.1 15 Noroeste 30 Norte 0.2 1008.8 1.3 79
2019-06-04 16:00:00 16.7 13 Noroeste 22 Noroeste 0.4 1008.3 0.7 76
2019-06-04 15:00:00 16.3 15 Oeste 34 Oeste 0.2 1008.1 1.3 71
2019-06-04 14:00:00 16.6 12 Noroeste 37 Oeste 0.2 1007.5 2.5 76
2019-06-04 13:00:00 15.7 12 Oeste 37 Noroeste 0.2 1007.6 2.6 81
2019-06-04 12:00:00 16.8 25 Noroeste 54 Oeste 0 1006.8 1.3 80
2019-06-04 11:00:00 20.5 4 Norte 11 Noroeste 0 1005 -0.3 73
2019-06-04 10:00:00 18.2 4 Sudeste 12 Sur 0 1005 -0.3 80
2019-06-04 09:00:00 16.6 3 Sudeste 8 Sudeste 0 1005.5 -0.1 90
2019-06-04 08:00:00 16.2 5 Nordeste 8 Norte 0 1005.3 -0.7 93
2019-06-04 07:00:00 16 3 Nordeste 6 Norte 0 1005.3 -1.3 96
2019-06-04 06:00:00 16.1 6 Norte 19 Norte 0 1005.6 -1.9 97
2019-06-04 05:00:00 17 6 Noroeste 13 Sudoeste 0 1006 -2.1 92
2019-06-04 04:00:00 17.1 4 Norte 13 Noroeste 0 1006.6 -2.2 94
2019-06-04 03:00:00 17.4 8 Noroeste 14 Noroeste 0 1007.5 -1.7 91
2019-06-04 02:00:00 17.4 4 Sudoeste 10 Sur 0 1008.1 -1.8 92
2019-06-04 01:00:00 17.5 3 Sudoeste 5 Sudoeste 0 1008.8 -1.4 92
2019-06-04 00:00:00 17.6 3 Sudeste 9 Este 0 1009.2 -1.4 90
2019-06-03 23:00:00 17.8 5 Este 9 Este 0 1009.9 -1 88
2019-06-03 22:00:00 18.1 5 Este 13 Este 0 1010.2 -0.7 87
2019-06-03 21:00:00 18.1 5 Este 14 Nordeste 0 1010.6 -0.6 86
2019-06-03 20:00:00 18.2 7 Nordeste 17 Este 0 1010.9 -0.5 87
2019-06-03 19:00:00 19 8 Nordeste 21 Norte 0 1010.9 -1 83
2019-06-03 18:00:00 20.3 13 Nordeste 22 Nordeste 0 1011.2 -1.4 78
2019-06-03 17:00:00 21.7 12 Nordeste 26 Nordeste 0 1011.4 -1.6 75
2019-06-03 16:00:00 21.6 12 Nordeste 25 Norte 0 1011.9 -1.5 74
2019-06-03 15:00:00 21 14 Norte 23 Norte 0 1012.6 -1.2 79
2019-06-03 14:00:00 20.9 16 Nordeste 27 Norte 0 1013 -1 78
2019-06-03 13:00:00 22 7 Nordeste 17 Norte 0 1013.4 -0.6 70
2019-06-03 12:00:00 18.9 10 Norte 18 Norte 0 1013.8 -0.3 87
2019-06-03 11:00:00 18.2 9 Norte 14 Norte 0 1014 0.4 91
2019-06-03 10:00:00 17.6 5 Nordeste 12 Nordeste 0 1014 0.4 93
2019-06-03 09:00:00 16.8 7 Norte 12 Norte 0 1014.1 0.4 95
2019-06-03 08:00:00 16.6 5 Este 11 Nordeste 0 1013.6 0.3 96
2019-06-03 07:00:00 16.3 5 Norte 8 Norte 0 1013.6 -0.4 96
2019-06-03 06:00:00 16.4 2 Sudeste 8 Nordeste 0 1013.7 -1.1 95
2019-06-03 05:00:00 16.5 2 Nordeste 5 Sur 0 1013.3 -1.5 93
2019-06-03 04:00:00 16.8 2 Sudoeste 6 Sudeste 0 1014 -1 92
2019-06-03 03:00:00 17.3 2 Noroeste 5 Oeste 0 1014.8 -0.1 90
2019-06-03 02:00:00 17.4 2 Nordeste 9 Noroeste 0 1014.8 -0.1 89
2019-06-03 01:00:00 17.7 6 Norte 8 Norte 0 1015 0.5 86
2019-06-03 00:00:00 17.6 4 Sudeste 6 Sudeste 0 1014.9 0.5 81
2019-06-02 23:00:00 17.9 4 Sudeste 5 Sudeste 0 1014.9 0.5 77
2019-06-02 22:00:00 18.4 0 Calma 7 Nordeste 0 1014.5 -0.1 71
2019-06-02 21:00:00 19.2 2 Sudeste 9 Norte 0 1014.4 0.1 65
2019-06-02 20:00:00 19.5 3 Sudeste 8 Norte 0 1014.4 0.3 65
2019-06-02 19:00:00 19.6 7 Norte 17 Nordeste 0 1014.6 0.6 61
2019-06-02 18:00:00 20.8 8 Noroeste 13 Norte 0 1014.3 0.1 61
2019-06-02 17:00:00 20.2 5 Noroeste 13 Norte 0 1014.1 -0.2 69
2019-06-02 16:00:00 19.8 4 Nordeste 12 Norte 0 1014 -0.3 72
2019-06-02 15:00:00 17.6 8 Norte 21 Norte 0 1014.2 0.5 85
2019-06-02 14:00:00 18.2 11 Norte 19 Norte 0 1014.3 1.4 82
2019-06-02 13:00:00 16.8 12 Norte 21 Norte 0 1014.3 1 89
2019-06-02 12:00:00 18.4 13 Norte 22 Noroeste 0 1013.7 1.1 81
2019-06-02 11:00:00 20.6 4 Noroeste 13 Noroeste 0 1012.9 0.2 75
2019-06-02 10:00:00 19.3 5 Norte 19 Noroeste 0 1013.3 0.6 70
2019-06-02 09:00:00 15.7 4 Sudeste 9 Sudeste 0 1012.6 -0.2 87
2019-06-02 08:00:00 13.3 3 Norte 6 Sudeste 0 1012.7 -0.5 92
2019-06-02 07:00:00 12.6 0 Calma 10 Sudeste 0 1012.7 -0.6 92
2019-06-02 06:00:00 12.7 6 Sudeste 9 Sudeste 0 1012.8 -0.7 89
2019-06-02 05:00:00 13.2 0 Calma 10 Sudeste 0 1013.2 -0.5 85
2019-06-02 04:00:00 13.5 2 Sudeste 9 Sudeste 0 1013.3 -1 82
2019-06-02 03:00:00 13.9 5 Sudeste 7 Sudeste 0 1013.5 -1 83
2019-06-02 02:00:00 15 4 Sudeste 9 Este 0 1013.7 -0.6 78
2019-06-02 01:00:00 16.1 3 Sudeste 5 Este 0 1014.3 0.6 77
2019-06-02 00:00:00 17.6 5 Sudeste 6 Sudeste 0 1014.5 0.9 77
2019-06-01 23:00:00 19.3 3 Sudeste 7 Sudoeste 0 1014.3 0.7 71
2019-06-01 22:00:00 21.5 4 Sudoeste 7 Sudoeste 0 1013.7 0 64
2019-06-01 21:00:00 23.8 2 Sudeste 7 Norte 0 1013.6 -0.2 50
2019-06-01 20:00:00 23.2 7 Norte 16 Norte 0 1013.6 -0.4 54
2019-06-01 19:00:00 23.4 10 Noroeste 15 Noroeste 0 1013.7 -0.5 54
2019-06-01 18:00:00 23.9 10 Noroeste 18 Noroeste 0 1013.8 -0.4 49
2019-06-01 17:00:00 24.3 11 Noroeste 19 Noroeste 0 1014 -0.5 47
2019-06-01 16:00:00 23.8 13 Noroeste 20 Noroeste 0 1014.2 -0.3 51
2019-06-01 15:00:00 24.5 11 Noroeste 17 Noroeste 0 1014.2 -0.3 52
2019-06-01 14:00:00 25.3 12 Norte 19 Norte 0 1014.5 0.2 51
2019-06-01 13:00:00 25.7 10 Norte 17 Noroeste 0 1014.5 0.2 48
2019-06-01 12:00:00 25.7 10 Norte 16 Norte 0 1014.5 0.4 48
2019-06-01 11:00:00 25.1 5 Norte 11 Noroeste 0 1014.3 0.2 51
2019-06-01 10:00:00 22.9 2 Noroeste 5 Noroeste 0 1014.3 0.3 60
2019-06-01 09:00:00 19.2 3 Sudeste 7 Sudeste 0 1014.1 0.1 76
2019-06-01 08:00:00 13.4 5 Sudeste 8 Sudeste 0 1014.1 -0.1 96
2019-06-01 07:00:00 12 7 Sudeste 9 Sudeste 0 1014 -0.6 97
2019-06-01 06:00:00 12.3 4 Sudeste 8 Sudeste 0 1014 -0.9 95
2019-06-01 05:00:00 12.4 6 Sudeste 8 Sudeste 0 1014.2 -0.9 95
2019-06-01 04:00:00 12.9 3 Sudeste 7 Este 0 1014.6 -0.9 94
2019-06-01 03:00:00 13.6 4 Sudeste 7 Sudeste 0 1014.9 -0.7 93
2019-06-01 02:00:00 14.6 3 Sudeste 8 Sudeste 0 1015.1 -0.4 92
2019-06-01 01:00:00 15.6 4 Este 6 Sudeste 0 1015.5 0.4 91
2019-06-01 00:00:00 16.8 5 Sudeste 6 Sudeste 0 1015.6 0.5 88
2019-05-31 23:00:00 19 2 Este 9 Oeste 0 1015.5 0.6 77
2019-05-31 22:00:00 21.7 5 Oeste 10 Oeste 0 1015.1 -0.3 65
2019-05-31 21:00:00 25.8 8 Oeste 14 Oeste 0 1015.1 -0.4 53
2019-05-31 20:00:00 29.4 7 Este 21 Este 0 1014.9 -1.2 33
2019-05-31 19:00:00 29.9 7 Este 23 Este 0 1015.4 -1.2 45
2019-05-31 18:00:00 29.3 8 Este 19 Este 0 1015.5 -1.5 44
2019-05-31 17:00:00 28 10 Nordeste 21 Nordeste 0 1016.1 -1.2 58
2019-05-31 16:00:00 28.2 10 Nordeste 19 Norte 0 1016.6 -1 52
2019-05-31 15:00:00 25.8 12 Norte 16 Norte 0 1017 -0.9 61
2019-05-31 14:00:00 25.9 8 Norte 14 Norte 0 1017.3 -0.8 62
2019-05-31 13:00:00 23.8 7 Norte 13 Norte 0 1017.6 -1 66
2019-05-31 12:00:00 21.7 9 Norte 13 Norte 0 1017.9 -0.6 70
2019-05-31 11:00:00 21.7 4 Noroeste 9 Norte 0 1018.1 -0.5 68
2019-05-31 10:00:00 19.4 4 Noroeste 6 Noroeste 0 1018.6 -0.1 75
2019-05-31 09:00:00 16.4 2 Norte 4 Sudeste 0 1018.5 -0.1 87
2019-05-31 08:00:00 11.6 4 Sudeste 6 Sudeste 0 1018.6 -0.5 98
2019-05-31 07:00:00 10.3 3 Sudeste 6 Sudeste 0 1018.7 -0.8 97
2019-05-31 06:00:00 10.8 3 Sudeste 5 Este 0 1018.6 -1.3 97
2019-05-31 05:00:00 11.3 4 Este 8 Sudeste 0 1019.1 -1.1 96
2019-05-31 04:00:00 11.8 5 Sudeste 6 Sudeste 0 1019.5 -1.1 95
2019-05-31 03:00:00 12.6 3 Sur 7 Sudeste 0 1019.9 -0.8 94
2019-05-31 02:00:00 13.2 6 Sudeste 7 Sudeste 0 1020.2 -0.4 92
2019-05-31 01:00:00 14.4 4 Sudeste 6 Sudeste 0 1020.6 0.6 88
2019-05-31 00:00:00 16.2 0 Calma 7 Sudoeste 0 1020.7 0.9 79
2019-05-30 23:00:00 18.7 4 Sur 12 Este 0 1020.6 0.8 66
2019-05-30 22:00:00 20.9 4 Nordeste 22 Este 0 1020 0 56
2019-05-30 21:00:00 23.4 11 Este 25 Este 0 1019.8 -0.4 47
2019-05-30 20:00:00 24 13 Este 27 Este 0 1019.8 -0.5 45
2019-05-30 19:00:00 25.7 11 Este 27 Este 0 1020 -0.7 41
2019-05-30 18:00:00 26.4 14 Este 33 Este 0 1020.2 -0.8 42
2019-05-30 17:00:00 26 15 Este 31 Este 0 1020.3 -1 42
2019-05-30 16:00:00 26.1 12 Este 28 Nordeste 0 1020.7 -0.9 45
2019-05-30 15:00:00 25.4 9 Este 25 Nordeste 0 1021 -0.9 50
2019-05-30 14:00:00 23.9 12 Nordeste 23 Norte 0 1021.3 -0.7 61
2019-05-30 13:00:00 22.4 15 Norte 22 Norte 0 1021.6 -0.6 67
2019-05-30 12:00:00 20.7 10 Norte 15 Norte 0 1021.9 -0.2 73
2019-05-30 11:00:00 19.5 6 Noroeste 12 Noroeste 0 1022 0.2 74
2019-05-30 10:00:00 18 4 Noroeste 9 Norte 0 1022.2 0.6 75
2019-05-30 09:00:00 15.2 0 Calma 3 Norte 0 1022.1 0.7 87
2019-05-30 08:00:00 11.1 2 Este 6 Sudeste 0 1021.8 0.3 99
2019-05-30 07:00:00 9.7 4 Sudeste 6 Sudeste 0 1021.6 -0.5 97
2019-05-30 06:00:00 10.1 3 Sur 6 Sudeste 0 1021.4 -0.9 97
2019-05-30 05:00:00 10.3 4 Este 9 Este 0 1021.5 -1.3 97
2019-05-30 04:00:00 10.6 2 Sudeste 7 Sudeste 0 1022.1 -0.9 96
2019-05-30 03:00:00 10.9 6 Sudeste 7 Sudeste 0 1022.3 -0.9 95
2019-05-30 02:00:00 11.5 3 Sudeste 6 Sudeste 0 1022.8 -0.4 93
2019-05-30 01:00:00 12.4 4 Sudeste 6 Este 0 1023 0.4 90
2019-05-30 00:00:00 13.9 4 Sur 14 Este 0 1023.2 0.9 84
2019-05-29 23:00:00 15.6 5 Este 18 Este 0 1023.2 1.3 76
2019-05-29 22:00:00 16.1 9 Este 20 Este 0 1022.6 0.4 74
2019-05-29 21:00:00 18.3 9 Este 20 Norte 0 1022.3 0 65
2019-05-29 20:00:00 20.3 7 Nordeste 22 Nordeste 0 1021.9 -0.6 57
2019-05-29 19:00:00 20.1 10 Nordeste 26 Nordeste 0 1022.2 -0.6 58
2019-05-29 18:00:00 21.2 9 Nordeste 23 Nordeste 0 1022.3 -1.1 52
2019-05-29 17:00:00 20.7 10 Nordeste 23 Norte 0 1022.5 -1.3 56
2019-05-29 16:00:00 20.4 8 Este 26 Norte 0 1022.8 -1 62
2019-05-29 15:00:00 19.3 12 Nordeste 26 Norte 0 1023.4 -0.2 69
2019-05-29 14:00:00 19 13 Nordeste 24 Norte 0 1023.8 0.4 72
2019-05-29 13:00:00 18.7 9 Nordeste 22 Nordeste 0 1023.8 0.2 72
2019-05-29 12:00:00 18.3 13 Nordeste 22 Nordeste 0 1023.6 0.3 73
2019-05-29 11:00:00 18 8 Norte 15 Norte 0 1023.4 0.5 68
2019-05-29 10:00:00 17 5 Nordeste 8 Nordeste 0 1023.6 0.9 63
2019-05-29 09:00:00 14.9 3 Oeste 6 Oeste 0 1023.3 0.8 76
2019-05-29 08:00:00 12.7 2 Este 4 Sudeste 0 1022.9 0.4 90
2019-05-29 07:00:00 12.9 3 Oeste 8 Oeste 0 1022.7 0.2 85
2019-05-29 06:00:00 12.4 2 Sudeste 4 Sur 0 1022.5 -0.4 92
2019-05-29 05:00:00 12.7 3 Sudoeste 8 Oeste 0 1022.5 -0.2 90
2019-05-29 04:00:00 12.9 3 Noroeste 6 Sudoeste 0 1022.5 -0.4 89
2019-05-29 03:00:00 12.8 2 Sudoeste 5 Noroeste 0 1022.9 0.3 91
2019-05-29 02:00:00 12.3 4 Sudeste 5 Sudeste 0 1022.7 -0.1 93
2019-05-29 01:00:00 12.2 2 Sudeste 6 Sur 0 1022.9 0.5 92
2019-05-29 00:00:00 12.1 4 Sur 6 Sur 0 1022.6 0.4 91
2019-05-28 23:00:00 13.2 4 Sudeste 9 Noroeste 0 1022.8 0.9 87
2019-05-28 22:00:00 14.5 6 Noroeste 17 Noroeste 0 1022.4 0.8 80
2019-05-28 21:00:00 15.4 9 Norte 18 Norte 0 1022.2 0.9 79
2019-05-28 20:00:00 16.3 10 Norte 23 Norte 0 1021.9 0.7 72
2019-05-28 19:00:00 16.6 16 Noroeste 26 Noroeste 0 1021.6 0.7 71
2019-05-28 18:00:00 16.9 16 Norte 25 Norte 0 1021.3 0.4 72
2019-05-28 17:00:00 16.9 17 Norte 28 Noroeste 0 1021.2 0.5 72
2019-05-28 16:00:00 16.9 19 Noroeste 29 Noroeste 0 1020.9 0.8 74
2019-05-28 15:00:00 17 18 Noroeste 27 Norte 0 1020.9 1 69
2019-05-28 14:00:00 16.2 13 Norte 29 Norte 0 1020.7 0.9 77
2019-05-28 13:00:00 16.8 14 Norte 23 Norte 0 1020.1 0.7 70
2019-05-28 12:00:00 16.2 10 Oeste 19 Oeste 0 1019.9 0.8 68
2019-05-28 11:00:00 15.3 8 Oeste 15 Oeste 0 1019.8 1.1 76
2019-05-28 10:00:00 14.4 6 Sudoeste 14 Sur 0 1019.4 1 77
2019-05-28 09:00:00 12.8 3 Oeste 8 Sudoeste 0 1019.1 0.9 91
2019-05-28 08:00:00 11.8 4 Oeste 10 Sur 0 1018.7 0.7 96
2019-05-28 07:00:00 10.5 0 Calma 5 Norte 0 1018.4 0.5 100
2019-05-28 06:00:00 9.5 0 Calma 4 Sudeste 0 1018.2 0.2 99
2019-05-28 05:00:00 9.2 0 Calma 5 Este 0 1018 -0.1 99
2019-05-28 04:00:00 9.4 4 Sudeste 6 Este 0 1017.9 -0.5 98
2019-05-28 03:00:00 10 4 Sudeste 6 Sudeste 0 1018 -0.5 97
2019-05-28 02:00:00 11.3 3 Sudeste 6 Sudeste 0 1018.1 -0.3 95
2019-05-28 01:00:00 12.5 4 Sudeste 6 Sudeste 0 1018.4 0.6 94
2019-05-28 00:00:00 13.3 0 Calma 12 Noroeste 0 1018.5 0.9 86
2019-05-27 23:00:00 14.2 5 Noroeste 17 Norte 0 1018.4 1.1 83
2019-05-27 22:00:00 14.4 6 Noroeste 17 Noroeste 0 1017.8 0.5 82
2019-05-27 21:00:00 14.7 11 Noroeste 17 Noroeste 0 1017.6 0.1 82
2019-05-27 20:00:00 15.3 9 Norte 14 Norte 0 1017.3 0.6 80
2019-05-27 19:00:00 15.7 6 Norte 21 Norte 0 1017.3 0.3 81
2019-05-27 18:00:00 15.2 13 Norte 20 Norte 0 1017.5 0.4 83
2019-05-27 17:00:00 15.5 12 Norte 19 Norte 0 1016.7 -0.3 87
2019-05-27 16:00:00 15.2 11 Norte 20 Norte 0 1017 0.1 93
2019-05-27 15:00:00 15.2 13 Norte 24 Noroeste 0.2 1017.1 0.6 94
2019-05-27 14:00:00 15.8 12 Noroeste 20 Noroeste 0 1017 0.7 94
2019-05-27 13:00:00 15.3 8 Noroeste 25 Noroeste 1.2 1016.9 0.8 97
2019-05-27 12:00:00 15.5 7 Noroeste 14 Noroeste 1.4 1016.5 0.7 97
2019-05-27 11:00:00 15 4 Sudoeste 10 Sudoeste 0 1016.3 0.5 97
2019-05-27 10:00:00 14.4 3 Sudoeste 8 Sudoeste 0.8 1016.1 0.2 97
2019-05-27 09:00:00 13.9 4 Oeste 8 Sudoeste 0 1015.8 -0.1 96
2019-05-27 08:00:00 13.1 3 Oeste 8 Sur 0.2 1015.8 -0.3 95
2019-05-27 07:00:00 13.2 5 Sur 8 Sur 0 1015.9 -0.8 92
2019-05-27 06:00:00 13.4 3 Sudoeste 5 Sudoeste 0 1015.9 -1.4 88
2019-05-27 05:00:00 13 2 Sudoeste 6 Sudoeste 0 1016.1 -1.4 90
2019-05-27 04:00:00 12.6 4 Sudoeste 6 Sudoeste 0 1016.7 -1.3 91
2019-05-27 03:00:00 12.1 4 Sudeste 5 Sudeste 0 1017.3 -1.4 95
2019-05-27 02:00:00 11.6 4 Sudeste 6 Sudeste 0 1017.5 -1.6 95
2019-05-27 01:00:00 12 2 Este 8 Sudeste 0 1018 -0.9 92
2019-05-27 00:00:00 13.8 2 Sur 8 Noroeste 0 1018.7 0 84
2019-05-26 23:00:00 14.7 7 Noroeste 13 Noroeste 0 1019.1 -0.1 81
2019-05-26 22:00:00 14.8 8 Noroeste 13 Norte 0 1018.9 -0.7 83
2019-05-26 21:00:00 15.1 4 Noroeste 8 Nordeste 0 1018.7 -1 81
2019-05-26 20:00:00 15 4 Norte 11 Norte 0 1019.2 -0.6 83
2019-05-26 19:00:00 15.2 7 Norte 15 Norte 0 1019.6 -0.6 84
2019-05-26 18:00:00 15.8 9 Norte 17 Norte 0 1019.7 -0.8 81
2019-05-26 17:00:00 16.2 5 Nordeste 16 Nordeste 0 1019.8 -1 79
2019-05-26 16:00:00 15.3 9 Norte 19 Norte 0 1020.2 -1 85
2019-05-26 15:00:00 15.5 12 Norte 23 Norte 0 1020.5 -0.6 83
2019-05-26 14:00:00 16.1 10 Norte 17 Norte 0 1020.8 -0.2 82
2019-05-26 13:00:00 15.1 11 Norte 19 Norte 0 1021.2 0 86
2019-05-26 12:00:00 15.5 11 Norte 19 Norte 0 1021.1 0 76
2019-05-26 11:00:00 16.5 8 Oeste 16 Sur 0 1021 0 70
2019-05-26 10:00:00 16 8 Oeste 15 Oeste 0 1021.2 0.3 72
2019-05-26 09:00:00 14.2 5 Sudoeste 10 Sur 0 1021.1 0.3 83
2019-05-26 08:00:00 9.7 3 Este 6 Este 0 1021 0.1 99
2019-05-26 07:00:00 8.4 5 Sudeste 8 Sudeste 0 1020.9 -0.5 97
2019-05-26 06:00:00 8.8 0 Calma 6 Sudeste 0 1020.8 -0.9 97
2019-05-26 05:00:00 9.4 5 Sudeste 6 Sudeste 0 1020.9 -1.2 96
2019-05-26 04:00:00 10.2 3 Sudeste 6 Sudeste 0 1021.4 -1.1 95
2019-05-26 03:00:00 11.1 4 Sudeste 5 Sudeste 0 1021.7 -1.2 93
2019-05-26 02:00:00 12.3 3 Sur 5 Sudoeste 0 1022.1 -0.7 91
2019-05-26 01:00:00 12.4 2 Este 6 Sudeste 0 1022.5 0 91
2019-05-26 00:00:00 12.3 4 Sudeste 6 Sudeste 0 1022.9 0.6 90
2019-05-25 23:00:00 13.4 3 Sudeste 6 Nordeste 0 1022.8 1 85
2019-05-25 22:00:00 14.7 5 Norte 13 Norte 0 1022.5 0.9 78
2019-05-25 21:00:00 16.3 9 Norte 16 Noroeste 0 1022.3 0.6 71
2019-05-25 20:00:00 17 10 Norte 17 Nordeste 0 1021.8 0 68
2019-05-25 19:00:00 17.9 8 Nordeste 18 Norte 0 1021.6 -0.3 62
2019-05-25 18:00:00 18.4 9 Nordeste 20 Nordeste 0 1021.7 -0.6 63
2019-05-25 17:00:00 17.9 10 Nordeste 23 Norte 0 1021.8 -0.6 65
2019-05-25 16:00:00 18 12 Norte 20 Norte 0 1021.9 -0.6 69
2019-05-25 15:00:00 18.2 13 Norte 21 Norte 0 1022.3 -0.1 68
2019-05-25 14:00:00 17.8 9 Norte 21 Norte 0 1022.4 0 63
2019-05-25 13:00:00 17.4 11 Norte 19 Norte 0 1022.5 0.3 70
2019-05-25 12:00:00 17.6 9 Norte 15 Norte 0 1022.4 0.4 67
2019-05-25 11:00:00 16.2 7 Noroeste 12 Noroeste 0 1022.4 0.8 75
2019-05-25 10:00:00 14.9 9 Noroeste 14 Norte 0 1022.2 1 83
2019-05-25 09:00:00 14.3 5 Norte 10 Noroeste 0 1022 1 90
2019-05-25 08:00:00 13.6 5 Oeste 8 Sur 0 1021.6 0.8 91
2019-05-25 07:00:00 13.4 4 Sudoeste 6 Sur 0 1021.2 0.4 92
2019-05-25 06:00:00 13.3 4 Sur 8 Sur 0 1021 -0.2 94
2019-05-25 05:00:00 12.7 3 Sur 6 Sudeste 0 1020.8 -0.7 95
2019-05-25 04:00:00 13.3 2 Sudeste 7 Noroeste 0 1020.8 -0.7 92
2019-05-25 03:00:00 14.1 4 Norte 13 Noroeste 0 1021.2 -0.2 88
2019-05-25 02:00:00 14.5 6 Noroeste 10 Norte 0 1021.5 0.3 88
2019-05-25 01:00:00 14.6 6 Norte 12 Norte 0 1021.5 1.1 90
2019-05-25 00:00:00 14.7 6 Norte 14 Norte 0 1021.4 1.3 91
2019-05-24 23:00:00 14.8 8 Noroeste 15 Norte 0 1021.2 1.6 90
2019-05-24 22:00:00 14.9 9 Noroeste 15 Noroeste 0 1020.4 0.6 87
2019-05-24 21:00:00 15.8 9 Noroeste 19 Norte 0 1020.1 0.2 83
2019-05-24 20:00:00 16.8 10 Norte 17 Noroeste 0 1019.6 -0.1 77
2019-05-24 19:00:00 16.7 10 Norte 20 Norte 0 1019.8 0.2 78
2019-05-24 18:00:00 16.7 15 Norte 24 Norte 0 1019.9 0.3 79
2019-05-24 17:00:00 16.8 14 Norte 28 Norte 0 1019.7 0.1 73
2019-05-24 16:00:00 16.8 21 Norte 30 Norte 0 1019.6 -0.2 73
2019-05-24 15:00:00 16.6 14 Noroeste 27 Norte 0 1019.6 0.2 74
2019-05-24 14:00:00 17.6 12 Noroeste 31 Noroeste 0 1019.6 0.5 66
2019-05-24 13:00:00 16 21 Noroeste 30 Noroeste 0 1019.8 0.5 71
2019-05-24 12:00:00 16.3 8 Noroeste 17 Noroeste 0 1019.4 0.1 67
2019-05-24 11:00:00 15.9 5 Sudoeste 11 Sur 0 1019.1 0.2 69
2019-05-24 10:00:00 14.3 6 Sudoeste 13 Oeste 0 1019.3 0.8 81
2019-05-24 09:00:00 14.2 6 Sudoeste 13 Sudoeste 0 1019.3 1.5 79
2019-05-24 08:00:00 13.2 4 Sudoeste 11 Sudoeste 0 1018.9 1.1 81
2019-05-24 07:00:00 12.5 2 Noroeste 7 Sudoeste 0 1018.5 0.4 85
2019-05-24 06:00:00 12.1 0 Calma 4 Noroeste 0 1017.8 -0.6 89
2019-05-24 05:00:00 11.9 3 Sudeste 8 Sur 0 1017.8 -0.9 87
2019-05-24 04:00:00 13.5 2 Sudoeste 12 Oeste 0 1018.1 -0.9 83
2019-05-24 03:00:00 13.9 5 Oeste 9 Oeste 0 1018.4 -0.6 78
2019-05-24 02:00:00 14 4 Sudoeste 17 Sudoeste 0 1018.7 -0.1 79
2019-05-24 01:00:00 14.1 3 Sudoeste 10 Sur 0 1019 0.3 76
2019-05-24 00:00:00 14.4 5 Sudoeste 15 Sudoeste 0 1019 0.5 75
2019-05-23 23:00:00 14.5 7 Sudoeste 26 Oeste 0 1018.8 0.7 74
2019-05-23 22:00:00 14.7 10 Oeste 27 Oeste 0 1018.7 1 76
2019-05-23 21:00:00 14.7 13 Oeste 30 Oeste 0 1018.5 1.4 79
2019-05-23 20:00:00 14.9 15 Oeste 34 Oeste 0 1018.1 1.6 78
2019-05-23 19:00:00 15.6 12 Noroeste 30 Noroeste 0 1017.7 1.3 77
2019-05-23 18:00:00 16 10 Norte 19 Norte 0 1017.1 1.1 80
2019-05-23 17:00:00 15.9 13 Norte 29 Noroeste 0 1016.5 0.6 82
2019-05-23 16:00:00 16.7 20 Noroeste 31 Norte 0 1016.4 0.1 80
2019-05-23 15:00:00 18.2 13 Norte 23 Noroeste 0 1016 -0.3 68
2019-05-23 14:00:00 19.2 12 Norte 22 Noroeste 0 1015.9 -0.4 65
2019-05-23 13:00:00 18.7 14 Norte 22 Norte 0 1016.3 0.2 71
2019-05-23 12:00:00 18.4 11 Norte 17 Norte 0 1016.3 0.5 73
2019-05-23 11:00:00 17.3 5 Sudoeste 11 Oeste 0 1016.3 0.7 76
2019-05-23 10:00:00 15.6 4 Sudoeste 12 Sudoeste 0 1016.1 1 81
2019-05-23 09:00:00 14.5 5 Sur 10 Sur 0 1015.8 1 87
2019-05-23 08:00:00 12.8 2 Sudoeste 10 Oeste 0 1015.6 1.5 93
2019-05-23 07:00:00 11.9 4 Sudoeste 10 Sudoeste 0 1015.1 1.2 96
2019-05-23 06:00:00 11.5 4 Sudoeste 8 Sudoeste 0 1014.8 0.7 95
2019-05-23 05:00:00 11.3 3 Sudeste 9 Sudeste 0 1014.1 -0.4 97
2019-05-23 04:00:00 11.7 0 Calma 8 Sudeste 0 1013.9 -0.5 96
2019-05-23 03:00:00 12 6 Este 9 Sudeste 0 1014.1 -0.6 95
2019-05-23 02:00:00 12.7 3 Sudeste 6 Este 0 1014.5 0 94
2019-05-23 01:00:00 13.4 5 Sudeste 8 Este 0 1014.4 0.3 93
2019-05-23 00:00:00 14.1 5 Sudeste 6 Sudeste 0 1014.7 0.9 91
2019-05-22 23:00:00 15.1 3 Sur 5 Sur 0 1014.5 0.9 89
2019-05-22 22:00:00 16.8 3 Sur 9 Oeste 0 1014.1 0.5 82
2019-05-22 21:00:00 19.2 5 Oeste 10 Oeste 0 1013.8 0.2 71
2019-05-22 20:00:00 20.6 5 Noroeste 11 Norte 0 1013.6 -0.1 67
2019-05-22 19:00:00 20.3 8 Norte 16 Norte 0 1013.6 -0.4 68
2019-05-22 18:00:00 19.9 8 Norte 14 Norte 0 1013.6 -0.4 72
2019-05-22 17:00:00 20.7 10 Norte 20 Norte 0 1013.7 -0.5 68
2019-05-22 16:00:00 20.9 11 Nordeste 22 Nordeste 0 1014 -0.8 66
2019-05-22 15:00:00 20.4 12 Nordeste 21 Nordeste 0 1014 -0.7 68
2019-05-22 14:00:00 20 16 Norte 23 Norte 0 1014.2 -0.6 68
2019-05-22 13:00:00 18.7 12 Norte 21 Nordeste 0 1014.8 -0.3 72
2019-05-22 12:00:00 17.3 11 Norte 17 Norte 0 1014.7 -0.6 76
2019-05-22 11:00:00 16 7 Oeste 13 Noroeste 0 1014.8 -0.4 77
2019-05-22 10:00:00 14.6 3 Sudoeste 8 Oeste 0 1015.1 -0.2 84
2019-05-22 09:00:00 12.5 2 Sur 5 Sudeste 0 1015.3 -0.2 94
2019-05-22 08:00:00 8.9 2 Sudeste 6 Sudeste 0 1015.2 -0.5 100
2019-05-22 07:00:00 7.9 4 Sudeste 6 Sudeste 0 1015.3 -0.7 97
2019-05-22 06:00:00 8.5 3 Sudeste 6 Sudeste 0 1015.5 -0.6 96
2019-05-22 05:00:00 9.5 0 Calma 5 Sudoeste 0 1015.7 -0.4 95
2019-05-22 04:00:00 9.9 5 Este 10 Sudeste 0 1016 -0.3 96
2019-05-22 03:00:00 10.7 3 Sur 12 Este 0 1016.1 -0.4 92
2019-05-22 02:00:00 12.3 8 Este 14 Este 0 1016.1 -0.4 90
2019-05-22 01:00:00 12.5 7 Este 13 Este 0 1016.3 0.3 89
2019-05-22 00:00:00 12.7 7 Este 12 Este 0 1016.5 0.7 89
2019-05-21 23:00:00 13.1 7 Este 15 Este 0 1016.5 1.2 87
2019-05-21 22:00:00 13.8 5 Este 26 Este 0 1016 0.8 83
2019-05-21 21:00:00 15.2 12 Este 24 Este 0 1015.8 0.6 78
2019-05-21 20:00:00 16 8 Este 26 Este 0 1015.3 0.1 76
2019-05-21 19:00:00 16.9 10 Este 29 Este 0 1015.2 0 72
2019-05-21 18:00:00 17.3 13 Este 33 Nordeste 0 1015.2 0 72
2019-05-21 17:00:00 18.1 11 Nordeste 29 Nordeste 0 1015.2 0.1 70
2019-05-21 16:00:00 18.5 12 Nordeste 28 Nordeste 0 1015.2 0 71
2019-05-21 15:00:00 18.5 14 Nordeste 29 Nordeste 0 1015.2 0.2 68
2019-05-21 14:00:00 18.1 13 Nordeste 28 Norte 0 1015.1 0.2 70
2019-05-21 13:00:00 18.2 11 Nordeste 25 Este 0 1015.2 0.3 69
2019-05-21 12:00:00 17.4 12 Este 29 Nordeste 0 1015 0.4 68
2019-05-21 11:00:00 17.1 8 Este 17 Nordeste 0 1014.9 0.3 69
2019-05-21 10:00:00 15.3 8 Este 16 Este 0 1014.9 0.8 77
2019-05-21 09:00:00 10.8 2 Oeste 5 Sudeste 0 1014.6 0.8 98
2019-05-21 08:00:00 7.2 4 Sudeste 8 Sudeste 0 1014.6 1.2 99
2019-05-21 07:00:00 6.7 3 Este 8 Sudeste 0 1014.1 0.8 99
2019-05-21 06:00:00 6.7 4 Sudeste 8 Sudeste 0 1013.8 0.4 98
2019-05-21 05:00:00 7.1 3 Este 5 Sudeste 0 1013.4 -0.2 98
2019-05-21 04:00:00 7.4 2 Sudeste 6 Sudeste 0 1013.3 -0.4 98
2019-05-21 03:00:00 7.8 5 Sudeste 6 Sudeste 0 1013.4 -0.3 97
2019-05-21 02:00:00 8.3 5 Sudeste 6 Sudeste 0 1013.6 0 96
2019-05-21 01:00:00 9.1 5 Sudeste 6 Este 0 1013.7 0.9 95
2019-05-21 00:00:00 10.3 4 Sudeste 5 Este 0 1013.7 1.2 91
2019-05-20 23:00:00 12.2 5 Este 16 Este 0 1013.6 1.4 85
2019-05-20 22:00:00 13.2 8 Este 17 Este 0 1012.8 0.5 79
2019-05-20 21:00:00 15.1 5 Nordeste 15 Este 0 1012.5 0.2 72
2019-05-20 20:00:00 15.9 8 Nordeste 25 Nordeste 0 1012.2 -0.2 68
2019-05-20 19:00:00 17.5 10 Nordeste 22 Norte 0 1012.3 -0.5 65
2019-05-20 18:00:00 16.8 9 Nordeste 22 Nordeste 0 1012.3 -0.5 67
2019-05-20 17:00:00 17.3 8 Nordeste 23 Norte 0 1012.4 -0.4 67
2019-05-20 16:00:00 15.6 10 Nordeste 24 Norte 0 1012.8 0 71
2019-05-20 15:00:00 16.7 10 Nordeste 24 Norte 0 1012.8 -0.1 70
2019-05-20 14:00:00 16.7 13 Nordeste 23 Nordeste 0 1012.8 -0.3 71
2019-05-20 13:00:00 16.3 12 Nordeste 23 Norte 0 1012.8 -0.2 67
2019-05-20 12:00:00 15.6 12 Norte 18 Norte 0 1012.9 0.1 75
2019-05-20 11:00:00 15 7 Norte 12 Nordeste 0 1013.1 0.8 70
2019-05-20 10:00:00 12.3 3 Norte 6 Noroeste 0 1013 1.1 87
2019-05-20 09:00:00 10 2 Sudeste 5 Oeste 0 1012.8 1 96
2019-05-20 08:00:00 6.5 2 Sur 8 Sudeste 0 1012.3 0.1 100
2019-05-20 07:00:00 4.9 5 Sudeste 6 Sudeste 0 1011.9 -0.6 99
2019-05-20 06:00:00 5.4 5 Sudeste 6 Sudeste 0 1011.8 -1.1 98
2019-05-20 05:00:00 6.1 3 Sudeste 6 Este 0 1012.2 -1.1 98
2019-05-20 04:00:00 6.9 3 Este 6 Sudeste 0 1012.5 -1.1 98
2019-05-20 03:00:00 7.3 4 Sudeste 5 Sudeste 0 1012.9 -0.8 98
2019-05-20 02:00:00 7.9 3 Este 6 Nordeste 0 1013.3 -0.4 97
2019-05-20 01:00:00 8.6 4 Sudeste 6 Sudeste 0 1013.6 0.5 96
2019-05-20 00:00:00 9.3 6 Sudeste 8 Sudeste 0 1013.7 0.8 95
2019-05-19 23:00:00 10.5 4 Sudeste 6 Sudeste 0 1013.7 1 91
2019-05-19 22:00:00 12.5 5 Norte 11 Noroeste 0 1013.1 0.6 83
2019-05-19 21:00:00 13.6 9 Norte 17 Norte 0 1012.9 0.1 77
2019-05-19 20:00:00 14 11 Norte 20 Noroeste 0 1012.7 -0.3 79
2019-05-19 19:00:00 15.1 7 Norte 17 Noroeste 0 1012.5 -0.7 70
2019-05-19 18:00:00 14.6 12 Noroeste 23 Noroeste 0 1012.8 -0.3 72
2019-05-19 17:00:00 14.4 16 Noroeste 29 Noroeste 0 1013 -0.1 74
2019-05-19 16:00:00 14.7 13 Noroeste 26 Noroeste 0 1013.2 0.3 73
2019-05-19 15:00:00 15.6 10 Noroeste 25 Noroeste 0 1013.1 0.5 66
2019-05-19 14:00:00 14.9 11 Noroeste 23 Noroeste 0 1013.1 0.6 65
2019-05-19 13:00:00 14.9 10 Oeste 24 Oeste 0 1012.9 0.7 60
2019-05-19 12:00:00 14.8 12 Noroeste 24 Noroeste 0 1012.6 0.9 59
2019-05-19 11:00:00 13.8 8 Oeste 17 Sudoeste 0 1012.5 0.8 65
2019-05-19 10:00:00 12.5 6 Sudoeste 18 Sur 0 1012.2 0.7 70
2019-05-19 09:00:00 11.7 8 Sudoeste 17 Sudoeste 0 1011.7 0.1 74
2019-05-19 08:00:00 10.7 7 Sur 16 Sur 0 1011.7 0.2 79
2019-05-19 07:00:00 9.9 6 Sur 13 Sur 0 1011.5 0 82
2019-05-19 06:00:00 10 5 Sudoeste 16 Sudoeste 0 1011.6 -0.1 81
2019-05-19 05:00:00 9.9 7 Sudoeste 13 Sudoeste 0 1011.5 -0.5 86
2019-05-19 04:00:00 9.8 6 Sudoeste 13 Sudoeste 0 1011.5 -0.5 88
2019-05-19 03:00:00 10.6 7 Sudoeste 14 Sudoeste 0 1011.7 -0.5 86
2019-05-19 02:00:00 10.7 6 Sudoeste 14 Sur 0 1012 -0.3 88
2019-05-19 01:00:00 10.7 6 Sudoeste 15 Sur 0 1012 0.2 90
2019-05-19 00:00:00 10.7 6 Sudoeste 17 Sudoeste 0.8 1012.2 0.7 91
2019-05-18 23:00:00 11 6 Sudoeste 18 Sudoeste 0.2 1012.3 1.3 90
2019-05-18 22:00:00 11.3 5 Sudoeste 30 Oeste 0.4 1011.8 0.9 89
2019-05-18 21:00:00 12.9 16 Oeste 34 Noroeste 0 1011.5 1 75
2019-05-18 20:00:00 14 18 Oeste 38 Noroeste 0 1011 0.7 70
2019-05-18 19:00:00 13.9 14 Oeste 32 Oeste 0 1010.9 0.6 72
2019-05-18 18:00:00 13.7 12 Oeste 35 Oeste 0 1010.5 0.1 72
2019-05-18 17:00:00 13.4 15 Oeste 32 Noroeste 0 1010.3 0 72
2019-05-18 16:00:00 13.3 17 Oeste 35 Oeste 0.2 1010.3 0.3 76
2019-05-18 15:00:00 11.5 14 Oeste 33 Oeste 1.4 1010.4 0.6 84
2019-05-18 14:00:00 11.5 14 Oeste 36 Oeste 1 1010.3 0.9 82
2019-05-18 13:00:00 11.6 13 Oeste 28 Oeste 0.2 1010 0.8 82
2019-05-18 12:00:00 11.7 10 Oeste 24 Oeste 1 1009.8 1.1 82
2019-05-18 11:00:00 12.2 8 Sudoeste 24 Sudoeste 0 1009.4 0.7 81
2019-05-18 10:00:00 10.3 8 Sudoeste 24 Sur 0.6 1009.2 0.4 88
2019-05-18 09:00:00 9.9 11 Sudoeste 24 Sudoeste 0.2 1008.7 0.2 87
2019-05-18 08:00:00 9 8 Sudoeste 17 Sudoeste 1.6 1008.7 -0.4 92
2019-05-18 07:00:00 9.2 8 Sudoeste 21 Sudoeste 0.6 1008.8 -0.4 88
2019-05-18 06:00:00 9 9 Sudoeste 19 Sudoeste 0.6 1008.5 -1.4 89
2019-05-18 05:00:00 9.3 8 Sudoeste 22 Sudoeste 1.4 1009.1 -1.3 86
2019-05-18 04:00:00 9.7 11 Sudoeste 25 Sur 0 1009.2 -1.4 80
2019-05-18 03:00:00 9.5 9 Sudoeste 20 Sudoeste 0.4 1009.9 -1 84
2019-05-18 02:00:00 9.6 6 Sudoeste 23 Sudoeste 0.6 1010.4 -0.5 82
2019-05-18 01:00:00 9.2 10 Sudoeste 20 Sudoeste 0 1010.6 -0.2 82
2019-05-18 00:00:00 9.9 8 Sudoeste 19 Sudoeste 0.4 1010.9 0.3 85
2019-05-17 23:00:00 10.1 7 Sur 16 Sudoeste 0 1010.9 0.4 86
2019-05-17 22:00:00 10.8 9 Oeste 20 Sudoeste 0.4 1010.8 0.4 86
2019-05-17 21:00:00 12.3 11 Oeste 27 Oeste 0.2 1010.6 0.2 78
2019-05-17 20:00:00 12.6 13 Oeste 39 Oeste 0 1010.5 0.1 76
2019-05-17 19:00:00 13.5 15 Oeste 36 Oeste 0.2 1010.4 -0.4 71
2019-05-17 18:00:00 13.7 18 Oeste 36 Noroeste 0 1010.4 0 74
2019-05-17 17:00:00 13.7 15 Oeste 32 Oeste 0 1010.4 0.1 75
2019-05-17 16:00:00 12.8 12 Oeste 33 Oeste 0.6 1010.8 0.7 86
2019-05-17 15:00:00 12.9 12 Oeste 36 Oeste 0.2 1010.4 0.7 87
2019-05-17 14:00:00 12.3 15 Oeste 31 Oeste 2.6 1010.3 1 81
2019-05-17 13:00:00 12.9 6 Oeste 42 Noroeste 2.2 1010.1 0.9 88
2019-05-17 12:00:00 14.5 13 Noroeste 31 Oeste 0 1009.7 1 72
2019-05-17 11:00:00 14.1 16 Oeste 30 Noroeste 0 1009.3 0.9 75
2019-05-17 10:00:00 13.1 10 Oeste 24 Oeste 0 1009.2 1.2 86
2019-05-17 09:00:00 12.8 9 Oeste 17 Oeste 0 1008.7 1.3 88
2019-05-17 08:00:00 12.3 9 Oeste 17 Oeste 0 1008.4 1.9 87
2019-05-17 07:00:00 12.1 6 Sudoeste 19 Oeste 0 1008 2 87
2019-05-17 06:00:00 12 12 Oeste 35 Oeste 0.2 1007.4 1.7 90
2019-05-17 05:00:00 11.8 19 Oeste 41 Noroeste 1 1006.5 0.8 91
2019-05-17 04:00:00 11.5 18 Oeste 47 Oeste 1.8 1006 0.2 93
2019-05-17 03:00:00 11.2 25 Oeste 47 Oeste 2.8 1005.7 -0.8 94
2019-05-17 02:00:00 11.5 15 Sudoeste 37 Sudoeste 0 1005.7 -0.9 89
2019-05-17 01:00:00 12 9 Sudoeste 21 Sudoeste 0 1005.8 -1.1 77
2019-05-17 00:00:00 11.9 10 Sudoeste 36 Noroeste 0 1006.5 -0.1 78